Time,TemperatureF,DewpointF,PressureIn,WindDirection,WindDirectionDegrees,WindSpeedMPH,WindSpeedGustMPH,Humidity,HourlyPrecipIn,Conditions,Clouds,dailyrainin,SoftwareType,DateUTC
2013-04-20 00:02:00,32.0,20.0,-100.00,WNW,300,7.0,9.0,60,-99.99,,,-99.99,,2013-04-20 05:02:00,
2013-04-20 00:12:00,32.0,20.0,-100.00,NW,310,9.0,11.0,61,-99.99,,,-99.99,,2013-04-20 05:12:00,
2013-04-20 00:22:00,32.0,20.0,-100.00,WNW,300,9.0,11.0,61,-99.99,,,-99.99,,2013-04-20 05:22:00,
2013-04-20 00:32:00,32.0,20.0,-100.00,NW,305,10.0,13.0,63,-99.99,,,-99.99,,2013-04-20 05:32:00,
2013-04-20 00:42:00,32.0,20.0,-100.00,NW,305,10.0,13.0,63,-99.99,,,-99.99,,2013-04-20 05:42:00,
2013-04-20 00:51:00,31.0,20.0,-100.00,WNW,300,7.0,9.0,64,-99.99,,,-99.99,,2013-04-20 05:51:00,
2013-04-20 01:02:00,31.0,20.0,-100.00,WNW,300,7.0,9.0,64,-99.99,,,-99.99,,2013-04-20 06:02:00,
2013-04-20 01:12:00,31.0,20.0,-100.00,WNW,300,6.0,7.0,65,-99.99,,,-99.99,,2013-04-20 06:12:00,
2013-04-20 01:21:00,31.0,20.0,-100.00,NW,305,5.0,7.0,66,-99.99,,,-99.99,,2013-04-20 06:21:00,
2013-04-20 01:32:00,30.0,21.0,-100.00,WNW,295,4.0,6.0,69,-99.99,,,-99.99,,2013-04-20 06:32:00,
2013-04-20 01:42:00,30.0,21.0,-100.00,WNW,295,4.0,6.0,69,-99.99,,,-99.99,,2013-04-20 06:42:00,
2013-04-20 01:52:00,30.0,22.0,-100.00,WNW,300,4.0,5.0,72,-99.99,,,-99.99,,2013-04-20 06:52:00,
2013-04-20 02:01:00,30.0,22.0,-100.00,WNW,300,4.0,5.0,72,-99.99,,,-99.99,,2013-04-20 07:01:00,
2013-04-20 02:11:00,29.0,22.0,-100.00,WNW,290,4.0,6.0,73,-99.99,,,-99.99,,2013-04-20 07:11:00,
2013-04-20 02:21:00,29.0,22.0,-100.00,NW,310,6.0,7.0,74,-99.99,,,-99.99,,2013-04-20 07:21:00,
2013-04-20 02:32:00,29.0,22.0,-100.00,WNW,295,6.0,7.0,74,-99.99,,,-99.99,,2013-04-20 07:32:00,
2013-04-20 02:42:00,29.0,22.0,-100.00,WNW,295,6.0,7.0,74,-99.99,,,-99.99,,2013-04-20 07:42:00,
2013-04-20 02:52:00,29.0,22.0,-100.00,WNW,300,4.0,5.0,74,-99.99,,,-99.99,,2013-04-20 07:52:00,
2013-04-20 03:01:00,29.0,22.0,-100.00,WNW,300,4.0,5.0,74,-99.99,,,-99.99,,2013-04-20 08:01:00,
2013-04-20 03:11:00,29.0,21.0,-100.00,WNW,300,6.0,6.0,74,-99.99,,,-99.99,,2013-04-20 08:11:00,
2013-04-20 03:21:00,29.0,22.0,-100.00,WNW,295,6.0,7.0,75,-99.99,,,-99.99,,2013-04-20 08:21:00,
2013-04-20 03:32:00,29.0,22.0,-100.00,WNW,295,7.0,7.0,75,-99.99,,,-99.99,,2013-04-20 08:32:00,
2013-04-20 03:42:00,29.0,22.0,-100.00,WNW,295,7.0,7.0,75,-99.99,,,-99.99,,2013-04-20 08:42:00,
2013-04-20 03:52:00,28.0,21.0,-100.00,WNW,285,5.0,6.0,75,-99.99,,,-99.99,,2013-04-20 08:52:00,
2013-04-20 04:01:00,28.0,21.0,-100.00,WNW,285,5.0,6.0,75,-99.99,,,-99.99,,2013-04-20 09:01:00,
2013-04-20 04:12:00,28.0,21.0,-100.00,West,280,6.0,7.0,75,-99.99,,,-99.99,,2013-04-20 09:12:00,
2013-04-20 04:21:00,28.0,21.0,-100.00,WNW,295,6.0,7.0,75,-99.99,,,-99.99,,2013-04-20 09:21:00,
2013-04-20 04:33:00,28.0,21.0,-100.00,NW,305,6.0,6.0,76,-99.99,,,-99.99,,2013-04-20 09:33:00,
2013-04-20 04:43:00,28.0,21.0,-100.00,NW,305,6.0,6.0,76,-99.99,,,-99.99,,2013-04-20 09:43:00,
2013-04-20 04:52:00,28.0,21.0,-100.00,WNW,295,6.0,7.0,77,-99.99,,,-99.99,,2013-04-20 09:52:00,
2013-04-20 05:02:00,28.0,21.0,-100.00,WNW,295,6.0,7.0,77,-99.99,,,-99.99,,2013-04-20 10:02:00,
2013-04-20 05:12:00,27.0,21.0,-100.00,WNW,295,6.0,7.0,78,-99.99,,,-99.99,,2013-04-20 10:12:00,
2013-04-20 05:23:00,27.0,21.0,-100.00,WNW,295,6.0,7.0,78,-99.99,,,-99.99,,2013-04-20 10:23:00,
2013-04-20 05:33:00,27.0,21.0,-100.00,WNW,285,4.0,4.0,78,-99.99,,,-99.99,,2013-04-20 10:33:00,
2013-04-20 05:42:00,27.0,21.0,-100.00,WNW,285,4.0,4.0,78,-99.99,,,-99.99,,2013-04-20 10:42:00,
2013-04-20 05:52:00,27.0,22.0,-100.00,WNW,295,7.0,8.0,80,-99.99,,,-99.99,,2013-04-20 10:52:00,
2013-04-20 06:02:00,27.0,22.0,-100.00,WNW,295,7.0,8.0,80,-99.99,,,-99.99,,2013-04-20 11:02:00,
2013-04-20 06:12:00,27.0,21.0,-100.00,West,280,5.0,6.0,80,-99.99,,,-99.99,,2013-04-20 11:12:00,
2013-04-20 06:23:00,27.0,22.0,-100.00,WNW,285,6.0,7.0,81,-99.99,,,-99.99,,2013-04-20 11:23:00,
2013-04-20 06:32:00,26.0,21.0,-100.00,West,270,6.0,7.0,82,-99.99,,,-99.99,,2013-04-20 11:32:00,
2013-04-20 06:42:00,26.0,21.0,-100.00,West,270,6.0,7.0,82,-99.99,,,-99.99,,2013-04-20 11:42:00,
2013-04-20 06:52:00,27.0,22.0,-100.00,WNW,290,6.0,7.0,81,-99.99,,,-99.99,,2013-04-20 11:52:00,
2013-04-20 07:02:00,27.0,22.0,-100.00,WNW,290,6.0,7.0,81,-99.99,,,-99.99,,2013-04-20 12:02:00,
2013-04-20 07:11:00,27.0,22.0,-100.00,WNW,290,7.0,8.0,81,-99.99,,,-99.99,,2013-04-20 12:11:00,
2013-04-20 07:22:00,28.0,22.0,-100.00,WNW,300,6.0,7.0,80,-99.99,,,-99.99,,2013-04-20 12:22:00,
2013-04-20 07:32:00,29.0,22.0,-100.00,WNW,300,8.0,9.0,77,-99.99,,,-99.99,,2013-04-20 12:32:00,
2013-04-20 07:42:00,29.0,22.0,-100.00,WNW,300,8.0,9.0,77,-99.99,,,-99.99,,2013-04-20 12:42:00,
2013-04-20 07:51:00,29.0,22.0,-100.00,NW,305,7.0,9.0,76,-99.99,,,-99.99,,2013-04-20 12:51:00,
2013-04-20 08:02:00,29.0,22.0,-100.00,NW,305,7.0,9.0,76,-99.99,,,-99.99,,2013-04-20 13:02:00,
2013-04-20 08:11:00,30.0,23.0,-100.00,WNW,300,4.0,6.0,74,-99.99,,,-99.99,,2013-04-20 13:11:00,
2013-04-20 08:21:00,30.0,22.0,-100.00,NW,320,6.0,7.0,72,-99.99,,,-99.99,,2013-04-20 13:21:00,
2013-04-20 08:32:00,31.0,22.0,-100.00,NW,315,7.0,9.0,67,-99.99,,,-99.99,,2013-04-20 13:32:00,
2013-04-20 08:42:00,31.0,22.0,-100.00,NW,315,7.0,9.0,67,-99.99,,,-99.99,,2013-04-20 13:42:00,
2013-04-20 08:52:00,32.0,21.0,-100.00,North,355,7.0,8.0,65,-99.99,,,-99.99,,2013-04-20 13:52:00,
2013-04-20 09:02:00,32.0,21.0,-100.00,North,355,7.0,8.0,65,-99.99,,,-99.99,,2013-04-20 14:02:00,
2013-04-20 09:11:00,33.0,21.0,-100.00,NNW,335,7.0,8.0,62,-99.99,,,-99.99,,2013-04-20 14:11:00,
2013-04-20 09:21:00,34.0,21.0,-100.00,NNW,335,6.0,7.0,59,-99.99,,,-99.99,,2013-04-20 14:21:00,
2013-04-20 09:32:00,35.0,21.0,-100.00,NW,325,5.0,6.0,56,-99.99,,,-99.99,,2013-04-20 14:32:00,
2013-04-20 09:42:00,35.0,21.0,-100.00,NW,325,5.0,6.0,56,-99.99,,,-99.99,,2013-04-20 14:42:00,
2013-04-20 09:51:00,37.0,20.0,-100.00,North,350,2.0,3.0,51,-99.99,,,-99.99,,2013-04-20 14:51:00,
2013-04-20 10:01:00,37.0,20.0,-100.00,North,350,2.0,3.0,51,-99.99,,,-99.99,,2013-04-20 15:01:00,
2013-04-20 10:11:00,37.0,20.0,-100.00,NW,320,2.0,3.0,50,-99.99,,,-99.99,,2013-04-20 15:11:00,
2013-04-20 10:21:00,38.0,19.0,-100.00,NNW,335,5.0,7.0,47,-99.99,,,-99.99,,2013-04-20 15:21:00,
2013-04-20 10:33:00,37.0,17.0,-100.00,NNE,20,4.0,6.0,44,-99.99,,,-99.99,,2013-04-20 15:33:00,
2013-04-20 10:43:00,37.0,17.0,-100.00,NNE,20,4.0,6.0,44,-99.99,,,-99.99,,2013-04-20 15:43:00,
2013-04-20 10:53:00,37.0,17.0,-100.00,NNE,20,3.0,4.0,44,-99.99,,,-99.99,,2013-04-20 15:53:00,
2013-04-20 11:03:00,37.0,17.0,-100.00,NNE,20,3.0,4.0,44,-99.99,,,-99.99,,2013-04-20 16:03:00,
2013-04-20 11:12:00,40.0,17.0,-100.00,NNW,335,7.0,9.0,40,-99.99,,,-99.99,,2013-04-20 16:12:00,
2013-04-20 11:23:00,40.0,17.0,-100.00,NNW,335,7.0,9.0,40,-99.99,,,-99.99,,2013-04-20 16:23:00,
2013-04-20 11:32:00,41.0,17.0,-100.00,West,280,4.0,5.0,38,-99.99,,,-99.99,,2013-04-20 16:32:00,
2013-04-20 11:42:00,41.0,17.0,-100.00,West,280,4.0,5.0,38,-99.99,,,-99.99,,2013-04-20 16:42:00,
2013-04-20 11:52:00,41.0,17.0,-100.00,WNW,300,6.0,7.0,37,-99.99,,,-99.99,,2013-04-20 16:52:00,
2013-04-20 12:02:00,41.0,17.0,-100.00,WNW,300,6.0,7.0,37,-99.99,,,-99.99,,2013-04-20 17:02:00,
2013-04-20 12:12:00,43.0,17.0,-100.00,NW,320,4.0,5.0,36,-99.99,,,-99.99,,2013-04-20 17:12:00,
2013-04-20 12:23:00,43.0,16.0,-100.00,West,280,2.0,5.0,34,-99.99,,,-99.99,,2013-04-20 17:23:00,
2013-04-20 12:33:00,44.0,15.0,-100.00,SW,225,2.0,2.0,31,-99.99,,,-99.99,,2013-04-20 17:33:00,
2013-04-20 12:42:00,44.0,15.0,-100.00,SW,225,2.0,2.0,31,-99.99,,,-99.99,,2013-04-20 17:42:00,
2013-04-20 12:52:00,44.0,14.0,-100.00,NNW,335,4.0,6.0,30,-99.99,,,-99.99,,2013-04-20 17:52:00,
2013-04-20 13:02:00,44.0,14.0,-100.00,NNW,335,4.0,6.0,30,-99.99,,,-99.99,,2013-04-20 18:02:00,
2013-04-20 13:12:00,43.0,13.0,-100.00,NNE,15,4.0,6.0,30,-99.99,,,-99.99,,2013-04-20 18:12:00,
2013-04-20 13:22:00,43.0,12.0,-100.00,NNE,30,6.0,7.0,29,-99.99,,,-99.99,,2013-04-20 18:22:00,
2013-04-20 13:32:00,46.0,15.0,-100.00,North,350,3.0,4.0,28,-99.99,,,-99.99,,2013-04-20 18:32:00,
2013-04-20 13:41:00,46.0,15.0,-100.00,North,350,3.0,4.0,28,-99.99,,,-99.99,,2013-04-20 18:41:00,
2013-04-20 13:52:00,47.0,13.0,-100.00,NNW,335,5.0,6.0,25,-99.99,,,-99.99,,2013-04-20 18:52:00,
2013-04-20 14:02:00,47.0,13.0,-100.00,NNW,335,5.0,6.0,25,-99.99,,,-99.99,,2013-04-20 19:02:00,
2013-04-20 14:11:00,47.0,13.0,-100.00,NW,320,6.0,8.0,25,-99.99,,,-99.99,,2013-04-20 19:11:00,
2013-04-20 14:21:00,46.0,12.0,-100.00,SSW,205,1.0,2.0,25,-99.99,,,-99.99,,2013-04-20 19:21:00,
2013-04-20 14:32:00,50.0,14.0,-100.00,WNW,300,1.0,2.0,24,-99.99,,,-99.99,,2013-04-20 19:32:00,
2013-04-20 14:42:00,50.0,14.0,-100.00,WNW,300,1.0,2.0,24,-99.99,,,-99.99,,2013-04-20 19:42:00,
2013-04-20 14:52:00,48.0,13.0,-100.00,SE,135,5.0,7.0,24,-99.99,,,-99.99,,2013-04-20 19:52:00,
2013-04-20 15:02:00,48.0,13.0,-100.00,SE,135,5.0,7.0,24,-99.99,,,-99.99,,2013-04-20 20:02:00,
2013-04-20 15:12:00,48.0,13.0,-100.00,SE,135,5.0,7.0,24,-99.99,,,-99.99,,2013-04-20 20:12:00,
2013-04-20 15:21:00,48.0,13.0,-100.00,NE,50,2.0,4.0,24,-99.99,,,-99.99,,2013-04-20 20:21:00,
2013-04-20 15:32:00,47.0,12.0,-100.00,East,100,5.0,8.0,24,-99.99,,,-99.99,,2013-04-20 20:32:00,
2013-04-20 15:42:00,47.0,12.0,-100.00,East,100,5.0,8.0,24,-99.99,,,-99.99,,2013-04-20 20:42:00,
2013-04-20 15:52:00,46.0,11.0,-100.00,East,100,7.0,9.0,24,-99.99,,,-99.99,,2013-04-20 20:52:00,
2013-04-20 16:01:00,46.0,11.0,-100.00,East,100,7.0,9.0,24,-99.99,,,-99.99,,2013-04-20 21:01:00,
2013-04-20 16:12:00,47.0,13.0,-100.00,ESE,110,6.0,7.0,25,-99.99,,,-99.99,,2013-04-20 21:12:00,
2013-04-20 16:21:00,48.0,13.0,-100.00,ESE,120,7.0,9.0,25,-99.99,,,-99.99,,2013-04-20 21:21:00,
2013-04-20 16:33:00,49.0,14.0,-100.00,SE,140,6.0,7.0,25,-99.99,,,-99.99,,2013-04-20 21:33:00,
2013-04-20 16:43:00,49.0,14.0,-100.00,SE,140,6.0,7.0,25,-99.99,,,-99.99,,2013-04-20 21:43:00,
2013-04-20 16:52:00,48.0,15.0,-100.00,East,95,5.0,7.0,26,-99.99,,,-99.99,,2013-04-20 21:52:00,
2013-04-20 17:02:00,48.0,15.0,-100.00,East,95,5.0,7.0,26,-99.99,,,-99.99,,2013-04-20 22:02:00,
2013-04-20 17:12:00,48.0,14.0,-100.00,East,95,12.0,14.0,26,-99.99,,,-99.99,,2013-04-20 22:12:00,
2013-04-20 17:22:00,48.0,13.0,-100.00,East,95,8.0,11.0,25,-99.99,,,-99.99,,2013-04-20 22:22:00,
2013-04-20 17:32:00,48.0,13.0,-100.00,East,80,6.0,7.0,25,-99.99,,,-99.99,,2013-04-20 22:32:00,
2013-04-20 17:42:00,48.0,13.0,-100.00,East,80,6.0,7.0,25,-99.99,,,-99.99,,2013-04-20 22:42:00,
2013-04-20 17:52:00,48.0,13.0,-100.00,East,80,12.0,14.0,25,-99.99,,,-99.99,,2013-04-20 22:52:00,
2013-04-20 18:02:00,48.0,13.0,-100.00,East,80,12.0,14.0,25,-99.99,,,-99.99,,2013-04-20 23:02:00,
2013-04-20 18:11:00,48.0,14.0,-100.00,ESE,110,12.0,16.0,26,-99.99,,,-99.99,,2013-04-20 23:11:00,
2013-04-20 18:22:00,48.0,15.0,-100.00,East,95,14.0,17.0,27,-99.99,,,-99.99,,2013-04-20 23:22:00,
2013-04-20 18:32:00,47.0,15.0,-100.00,East,80,13.0,16.0,28,-99.99,,,-99.99,,2013-04-20 23:32:00,
2013-04-20 18:42:00,47.0,15.0,-100.00,East,80,13.0,16.0,28,-99.99,,,-99.99,,2013-04-20 23:42:00,
2013-04-20 18:52:00,46.0,15.0,-100.00,ESE,105,14.0,17.0,28,-99.99,,,-99.99,,2013-04-20 23:52:00,
2013-04-20 19:01:00,46.0,15.0,-100.00,ESE,105,14.0,17.0,28,-99.99,,,-99.99,,2013-04-21 00:01:00,
2013-04-20 19:11:00,46.0,15.0,-100.00,ESE,110,13.0,15.0,28,-99.99,,,-99.99,,2013-04-21 00:11:00,
2013-04-20 19:21:00,46.0,14.0,-100.00,East,95,13.0,16.0,27,-99.99,,,-99.99,,2013-04-21 00:21:00,
2013-04-20 19:32:00,46.0,13.0,-100.00,ESE,105,9.0,13.0,27,-99.99,,,-99.99,,2013-04-21 00:32:00,
2013-04-20 19:42:00,46.0,13.0,-100.00,ESE,105,9.0,13.0,27,-99.99,,,-99.99,,2013-04-21 00:42:00,
2013-04-20 19:52:00,45.0,13.0,-100.00,East,100,9.0,10.0,27,-99.99,,,-99.99,,2013-04-21 00:52:00,
2013-04-20 20:01:00,45.0,13.0,-100.00,East,100,9.0,10.0,27,-99.99,,,-99.99,,2013-04-21 01:01:00,
2013-04-20 20:11:00,45.0,13.0,-100.00,East,100,9.0,11.0,27,-99.99,,,-99.99,,2013-04-21 01:11:00,
2013-04-20 20:21:00,45.0,13.0,-100.00,ESE,105,9.0,11.0,28,-99.99,,,-99.99,,2013-04-21 01:21:00,
2013-04-20 20:31:00,44.0,15.0,-100.00,East,100,8.0,11.0,30,-99.99,,,-99.99,,2013-04-21 01:31:00,
2013-04-20 20:42:00,44.0,15.0,-100.00,East,100,8.0,11.0,30,-99.99,,,-99.99,,2013-04-21 01:42:00,
2013-04-20 20:52:00,44.0,16.0,-100.00,East,95,7.0,9.0,32,-99.99,,,-99.99,,2013-04-21 01:52:00,
2013-04-20 21:01:00,44.0,16.0,-100.00,East,95,7.0,9.0,32,-99.99,,,-99.99,,2013-04-21 02:01:00,
2013-04-20 21:11:00,44.0,16.0,-100.00,East,100,8.0,9.0,33,-99.99,,,-99.99,,2013-04-21 02:11:00,
2013-04-20 21:21:00,43.0,17.0,-100.00,East,95,9.0,10.0,35,-99.99,,,-99.99,,2013-04-21 02:21:00,
2013-04-20 21:32:00,43.0,18.0,-100.00,East,100,8.0,9.0,36,-99.99,,,-99.99,,2013-04-21 02:32:00,
2013-04-20 21:41:00,43.0,18.0,-100.00,East,100,8.0,9.0,36,-99.99,,,-99.99,,2013-04-21 02:41:00,
2013-04-20 21:51:00,43.0,20.0,-100.00,ESE,110,11.0,12.0,39,-99.99,,,-99.99,,2013-04-21 02:51:00,
2013-04-20 22:01:00,43.0,20.0,-100.00,ESE,110,11.0,12.0,39,-99.99,,,-99.99,,2013-04-21 03:01:00,
2013-04-20 22:11:00,43.0,20.0,-100.00,ESE,105,9.0,11.0,39,-99.99,,,-99.99,,2013-04-21 03:11:00,
2013-04-20 22:21:00,43.0,19.0,-100.00,ESE,110,14.0,16.0,39,-99.99,,,-99.99,,2013-04-21 03:21:00,
2013-04-20 22:33:00,43.0,20.0,-100.00,ESE,105,13.0,16.0,40,-99.99,,,-99.99,,2013-04-21 03:33:00,
2013-04-20 22:42:00,43.0,20.0,-100.00,ESE,105,13.0,16.0,40,-99.99,,,-99.99,,2013-04-21 03:42:00,
2013-04-20 22:52:00,42.0,19.0,-100.00,ESE,110,13.0,15.0,39,-99.99,,,-99.99,,2013-04-21 03:52:00,
2013-04-20 23:02:00,42.0,19.0,-100.00,ESE,110,13.0,15.0,39,-99.99,,,-99.99,,2013-04-21 04:02:00,
2013-04-20 23:12:00,42.0,19.0,-100.00,ESE,110,11.0,12.0,40,-99.99,,,-99.99,,2013-04-21 04:12:00,
2013-04-20 23:22:00,42.0,19.0,-100.00,ESE,110,11.0,12.0,40,-99.99,,,-99.99,,2013-04-21 04:22:00,
2013-04-20 23:33:00,42.0,20.0,-100.00,ESE,110,11.0,13.0,41,-99.99,,,-99.99,,2013-04-21 04:33:00,
2013-04-20 23:42:00,42.0,20.0,-100.00,ESE,110,11.0,13.0,41,-99.99,,,-99.99,,2013-04-21 04:42:00,
2013-04-20 23:52:00,42.0,20.0,-100.00,ESE,115,9.0,12.0,42,-99.99,,,-99.99,,2013-04-21 04:52:00,